NCAR-RAP Real-Time Weather Data

Output produced by METARs form (06 May 2021  15:05 UTC)
found at http://weather.rap.ucar.edu/surface/
 
KLWS 061456Z 08011KT 10SM CLR 17/02 A2991 RMK AO2 SLP120 T01720017 56005
KLWS 061356Z 08011KT 10SM CLR 16/01 A2991 RMK AO2 SLP121 T01560011 $
KLWS 061256Z AUTO 09010KT 10SM CLR 14/01 A2991 RMK AO2 SLP123 T01390006 $
KLWS 061156Z AUTO 07011KT 10SM CLR 15/01 A2992 RMK AO2 SLP124 T01500006 10194 20139 56011 $
KLWS 061056Z AUTO 08011KT 10SM CLR 16/00 A2993 RMK AO2 SLP127 T01610000 $
KLWS 060956Z AUTO 07012KT 10SM CLR 16/M01 A2994 RMK AO2 SLP129 T01611011
KLWS 060856Z AUTO 00000KT 10SM CLR 16/M01 A2996 RMK AO2 SLP136 T01611006 58014
KLWS 060756Z AUTO 19003KT 10SM CLR 17/M01 A2998 RMK AO2 SLP143 T01721011 402720067
KLWS 060656Z AUTO 11005KT 10SM CLR 18/M03 A2999 RMK AO2 SLP147 T01831028
KLWS 060556Z AUTO 17004KT 10SM CLR 19/M02 A3000 RMK AO2 SLP152 T01941022 10261 20189 58002
KLWS 060456Z 16005KT 10SM CLR 20/M03 A3002 RMK AO2 SLP161 T02001033
KLWS 060356Z 10007KT 10SM CLR 22/M06 A3001 RMK AO2 SLP159 T02221056
KLWS 060256Z 07009KT 10SM CLR 23/M04 A3000 RMK AO2 SLP156 T02281044 55005